Argenta, Texas
Current Conditions -  °F | °C
As of 6:50 PM on Wednesday 22 Oct 2014 (Local Time) from KRBO Reporting Station
Heavy Rain Heavy Rain  
Wind Chill: 26°   Ceiling: Unl
Heat Index: 27°   Visibility: 7mi
Dew Point: 19°   Wind: 8mph
Humidity: 65%   Direction: 100°E
Pressure: 30.03"   Gusts: NA
Location:  28.0654°N, 97.7489°W
Report Text: KRBO 222350Z AUTO 10007KT 7SM +RA CLR 26/19 A3003 RMK AO2 T02560187 10293 20256
Loading
Personal Weather Stations






























Interactive Weather Map
Tropical Storm Tracking
New forecast layout! Learn more

10-Day Weather Forecast

Advertisements
Track Severe Weather on mobile